Time;durP1;ratioP1;P1;durP2;ratioP2;P2;SDS_P1;SDS_P2;PMS_P1;PMS_P2;Temp;Humidity;BMP_temperature;BMP_pressure;BME280_temperature;BME280_humidity;BME280_pressure;Samples;Min_cycle;Max_cycle;Signal;HPM_P1;HPM_P2
2022/06/27 00:02:19;;;;;;;4.70;2.85;;;;;;;21.45;100.00;100368.25;5164063;28;20053;-73
2022/06/27 00:04:50;;;;;;;5.40;3.38;;;;;;;21.33;100.00;100361.28;5174647;28;20373;-73
2022/06/27 00:07:21;;;;;;;4.78;3.00;;;;;;;21.09;100.00;100363.31;5172218;28;20022;-73
2022/06/27 00:09:51;;;;;;;5.03;3.20;;;;;;;21.17;100.00;100356.41;5173737;28;20029;-73
2022/06/27 00:12:21;;;;;;;5.35;3.20;;;;;;;21.55;100.00;100366.53;5172339;28;20033;-73
2022/06/27 00:14:51;;;;;;;5.50;3.25;;;;;;;21.46;100.00;100361.97;5174251;28;20041;-73
2022/06/27 00:17:22;;;;;;;5.15;2.80;;;;;;;21.51;100.00;100357.09;5172304;28;20030;-73
2022/06/27 00:19:52;;;;;;;5.53;3.25;;;;;;;21.69;100.00;100364.41;5166015;28;20112;-73
2022/06/27 00:22:23;;;;;;;3.28;2.90;;;;;;;21.55;100.00;100366.53;5167856;28;20037;-73
2022/06/27 00:24:53;;;;;;;4.63;2.80;;;;;;;21.68;100.00;100351.22;5156443;28;20027;-73
2022/06/27 00:27:23;;;;;;;3.30;2.83;;;;;;;21.73;100.00;100357.03;5170621;28;20113;-73
2022/06/27 00:29:54;;;;;;;5.30;3.20;;;;;;;21.94;100.00;100352.53;5167811;28;20483;-73
2022/06/27 00:32:26;;;;;;;3.90;3.05;;;;;;;21.65;100.00;100352.34;5172701;28;20503;-73
2022/06/27 00:34:56;;;;;;;6.95;3.30;;;;;;;21.46;100.00;100354.84;5173423;28;20391;-72
2022/06/27 00:37:27;;;;;;;4.57;3.42;;;;;;;21.31;100.00;100347.28;5172215;28;20022;-72
2022/06/27 00:39:57;;;;;;;5.93;3.28;;;;;;;21.16;100.00;100349.41;5221527;23;20048;-73
2022/06/27 00:42:27;;;;;;;4.53;3.33;;;;;;;21.30;100.00;100353.56;5201247;28;20033;-74
2022/06/27 00:44:58;;;;;;;5.13;3.42;;;;;;;21.36;100.00;100358.38;5200861;28;20033;-74
2022/06/27 00:47:28;;;;;;;5.45;3.30;;;;;;;21.45;100.00;100349.63;5202798;28;20022;-73
2022/06/27 00:49:58;;;;;;;4.63;3.47;;;;;;;21.47;100.00;100353.00;5187376;28;20091;-73
2022/06/27 00:52:29;;;;;;;5.50;3.20;;;;;;;21.34;100.00;100360.31;5203643;28;20048;-73
2022/06/27 00:54:59;;;;;;;4.35;3.28;;;;;;;21.35;100.00;100360.19;5193130;28;20045;-74
2022/06/27 00:57:30;;;;;;;4.82;3.33;;;;;;;21.30;100.00;100375.69;5192897;28;20056;-74
2022/06/27 01:00:01;;;;;;;4.57;3.08;;;;;;;21.47;100.00;100366.31;5187632;28;20040;-73
2022/06/27 01:02:31;;;;;;;4.38;3.20;;;;;;;21.65;100.00;100356.81;5184234;28;20026;-73
2022/06/27 01:05:02;;;;;;;5.82;3.20;;;;;;;21.71;100.00;100362.47;5192491;28;20049;-74
2022/06/27 01:07:33;;;;;;;5.10;3.50;;;;;;;21.72;100.00;100352.69;5192940;28;20029;-74
2022/06/27 01:10:04;;;;;;;6.07;3.67;;;;;;;21.43;100.00;100351.59;5191737;28;20036;-74
2022/06/27 01:12:35;;;;;;;6.38;4.40;;;;;;;21.14;100.00;100347.81;5192784;28;20101;-74
2022/06/27 01:15:05;;;;;;;5.60;3.97;;;;;;;21.02;100.00;100349.69;5191831;28;20660;-73
2022/06/27 01:17:37;;;;;;;4.22;3.42;;;;;;;21.14;100.00;100355.81;5192115;28;20410;-73
2022/06/27 01:20:08;;;;;;;6.20;3.65;;;;;;;21.28;100.00;100352.84;5185919;28;20433;-73
2022/06/27 01:22:39;;;;;;;4.97;3.65;;;;;;;21.20;100.00;100345.50;5190462;28;20032;-73
2022/06/27 01:25:12;;;;;;;5.28;3.58;;;;;;;21.11;100.00;100350.75;5177137;28;20113;-73
2022/06/27 01:27:44;;;;;;;4.43;3.30;;;;;;;20.98;100.00;100345.59;5193745;28;20430;-73
2022/06/27 01:30:14;;;;;;;4.25;3.47;;;;;;;20.51;100.00;100345.03;5181309;28;20032;-73
2022/06/27 01:32:44;;;;;;;9.93;3.80;;;;;;;20.27;100.00;100352.31;5186652;28;20022;-73
2022/06/27 01:35:15;;;;;;;6.10;4.00;;;;;;;20.06;100.00;100348.69;5209075;28;20036;-73
2022/06/27 01:37:45;;;;;;;4.07;3.42;;;;;;;20.29;100.00;100355.69;5189763;28;20025;-73
2022/06/27 01:40:16;;;;;;;7.32;3.88;;;;;;;20.45;100.00;100366.78;5189828;28;20033;-73
2022/06/27 01:42:47;;;;;;;4.43;3.70;;;;;;;20.68;100.00;100357.81;5193578;28;20033;-73
2022/06/27 01:45:17;;;;;;;5.93;3.85;;;;;;;20.80;100.00;100373.63;5189980;28;20454;-74
2022/06/27 01:47:47;;;;;;;4.82;3.88;;;;;;;20.99;100.00;100392.47;5187691;28;20051;-74
2022/06/27 01:50:19;;;;;;;5.13;3.83;;;;;;;20.76;100.00;100408.53;5180044;28;20108;-74
2022/06/27 01:52:51;;;;;;;8.18;3.85;;;;;;;20.94;100.00;100423.03;5189296;28;20702;-72
2022/06/27 01:55:21;;;;;;;5.20;3.75;;;;;;;21.02;100.00;100421.44;5190879;28;20081;-73
2022/06/27 01:57:52;;;;;;;5.35;3.75;;;;;;;21.11;100.00;100414.53;5191473;28;20102;-73
2022/06/27 02:00:23;;;;;;;4.90;4.18;;;;;;;21.05;100.00;100415.88;5188039;28;20479;-73
2022/06/27 02:02:53;;;;;;;6.68;3.90;;;;;;;21.24;100.00;100410.75;5180905;28;20036;-73
2022/06/27 02:05:23;;;;;;;8.48;4.18;;;;;;;21.19;100.00;100401.44;5185871;28;20029;-74
2022/06/27 02:07:57;;;;;;;4.95;4.05;;;;;;;21.36;100.00;100398.25;5190475;28;20037;-74
2022/06/27 02:10:27;;;;;;;5.07;3.88;;;;;;;21.35;100.00;100391.25;5191487;28;20479;-73
2022/06/27 02:12:58;;;;;;;7.53;4.07;;;;;;;21.35;100.00;100393.91;5191673;28;20038;-74
2022/06/27 02:15:30;;;;;;;5.93;4.25;;;;;;;21.29;100.00;100386.44;5191968;28;20022;-73
2022/06/27 02:18:01;;;;;;;4.60;4.07;;;;;;;21.25;100.00;100385.03;5191203;28;20037;-74
2022/06/27 02:20:32;;;;;;;5.78;3.97;;;;;;;21.20;100.00;100382.72;5180907;28;20022;-74
2022/06/27 02:23:02;;;;;;;6.93;4.15;;;;;;;21.06;100.00;100393.63;5203884;28;20061;-74
2022/06/27 02:25:32;;;;;;;8.57;4.18;;;;;;;21.06;100.00;100395.47;5191807;28;20036;-72
2022/06/27 02:28:03;;;;;;;7.97;4.53;;;;;;;21.23;100.00;100397.59;5188879;28;20120;-72
2022/06/27 02:30:34;;;;;;;6.85;4.35;;;;;;;21.22;100.00;100401.22;5191053;28;20064;-74
2022/06/27 02:33:04;;;;;;;7.25;4.72;;;;;;;21.23;100.00;100402.91;5180677;28;20025;-74
2022/06/27 02:35:36;;;;;;;5.30;4.43;;;;;;;20.94;100.00;100399.97;5187313;28;20033;-73
2022/06/27 02:38:09;;;;;;;6.95;4.70;;;;;;;20.93;100.00;100406.22;5188984;28;20470;-71
2022/06/27 02:40:42;;;;;;;6.15;4.55;;;;;;;20.95;100.00;100398.16;5192348;28;20022;-73
2022/06/27 02:43:14;;;;;;;6.15;5.25;;;;;;;20.80;100.00;100394.03;5188889;28;20076;-73
2022/06/27 02:45:45;;;;;;;7.10;5.03;;;;;;;20.87;100.00;100398.75;5184584;28;20100;-74
2022/06/27 02:48:18;;;;;;;8.27;4.90;;;;;;;20.96;100.00;100402.50;5189215;28;20564;-72
2022/06/27 02:50:53;;;;;;;7.10;5.00;;;;;;;20.81;100.00;100399.22;5180226;28;20043;-73
2022/06/27 02:53:27;;;;;;;7.18;4.78;;;;;;;20.83;100.00;100409.72;5190343;28;20030;-73
2022/06/27 02:56:01;;;;;;;8.07;4.63;;;;;;;20.98;100.00;100409.38;5188511;28;20057;-74
2022/06/27 02:58:40;;;;;;;6.93;4.95;;;;;;;20.93;100.00;100419.50;5189538;28;20029;-74
2022/06/27 03:01:12;;;;;;;7.43;4.90;;;;;;;21.08;100.00;100420.09;5192363;28;20415;-72
2022/06/27 03:03:44;;;;;;;7.13;4.93;;;;;;;21.03;100.00;100420.47;5188730;28;20034;-73
2022/06/27 03:06:15;;;;;;;6.75;4.85;;;;;;;21.00;100.00;100422.53;5184617;28;20037;-73
2022/06/27 03:08:47;;;;;;;6.40;4.90;;;;;;;20.88;100.00;100423.53;5192173;28;20025;-74
2022/06/27 03:11:20;;;;;;;6.82;5.05;;;;;;;20.87;100.00;100412.03;5189099;28;20104;-74
2022/06/27 03:13:52;;;;;;;6.72;4.63;;;;;;;20.94;100.00;100412.41;5191312;28;20021;-73
2022/06/27 03:16:23;;;;;;;6.30;4.78;;;;;;;20.93;100.00;100406.22;5188072;28;20022;-74
2022/06/27 03:18:54;;;;;;;8.43;5.10;;;;;;;20.85;100.00;100419.31;5186746;28;20022;-74
2022/06/27 03:21:24;;;;;;;7.63;4.75;;;;;;;20.83;100.00;100428.31;5184063;28;20076;-73
2022/06/27 03:23:55;;;;;;;8.95;4.82;;;;;;;20.91;100.00;100415.31;5189335;28;20030;-74
2022/06/27 03:26:25;;;;;;;5.78;4.93;;;;;;;21.05;100.00;100420.38;5189828;28;20032;-73
2022/06/27 03:28:55;;;;;;;6.93;4.90;;;;;;;21.16;100.00;100428.28;5189485;28;20080;-73
2022/06/27 03:31:26;;;;;;;6.32;4.18;;;;;;;21.27;100.00;100414.97;5190130;28;20029;-73
2022/06/27 03:33:56;;;;;;;6.68;4.32;;;;;;;21.32;100.00;100415.44;5190392;28;20022;-73
2022/06/27 03:36:27;;;;;;;8.48;4.68;;;;;;;21.42;100.00;100408.41;5189115;28;20620;-74
2022/06/27 03:38:57;;;;;;;7.72;4.40;;;;;;;21.38;100.00;100412.28;5188353;28;20046;-73
2022/06/27 03:41:28;;;;;;;7.78;4.70;;;;;;;21.49;100.00;100412.22;5189830;28;20028;-73
2022/06/27 03:43:58;;;;;;;6.60;4.20;;;;;;;21.56;100.00;100411.59;5205351;28;20061;-74
2022/06/27 03:46:28;;;;;;;7.60;4.30;;;;;;;21.48;100.00;100410.53;5190024;28;20057;-74
2022/06/27 03:51:48;;;;;;;6.22;4.60;;;;;;;21.67;100.00;100402.75;5184030;28;20111;-74
2022/06/27 03:54:19;;;;;;;6.60;4.53;;;;;;;21.68;100.00;100394.66;5189138;28;20021;-73
2022/06/27 03:56:49;;;;;;;7.05;4.25;;;;;;;21.62;100.00;100394.28;5190597;28;20040;-74
2022/06/27 03:59:19;;;;;;;6.53;4.30;;;;;;;21.66;100.00;100395.75;5188291;28;20025;-74
2022/06/27 04:01:50;;;;;;;6.43;4.53;;;;;;;21.73;100.00;100404.91;5189915;28;20189;-73
2022/06/27 04:04:20;;;;;;;8.15;4.45;;;;;;;21.70;100.00;100413.13;5190859;28;20730;-73
2022/06/27 04:06:50;;;;;;;7.45;4.28;;;;;;;21.75;100.00;100413.63;5182417;28;20034;-74
2022/06/27 04:09:20;;;;;;;7.57;4.20;;;;;;;22.01;100.00;100418.41;5183458;28;20161;-74
2022/06/27 04:11:51;;;;;;;5.43;3.95;;;;;;;22.09;100.00;100410.63;5183516;28;20033;-73
2022/06/27 04:14:21;;;;;;;7.18;4.20;;;;;;;22.00;100.00;100408.75;5183812;28;20158;-74
2022/06/27 04:16:52;;;;;;;5.97;3.80;;;;;;;21.96;100.00;100419.78;5183370;28;20124;-74
2022/06/27 04:19:22;;;;;;;6.50;3.97;;;;;;;21.66;100.00;100409.03;5182334;28;20113;-73
2022/06/27 04:21:52;;;;;;;4.63;3.58;;;;;;;21.75;100.00;100400.31;5187939;28;20037;-74
2022/06/27 04:24:22;;;;;;;5.60;3.50;;;;;;;21.84;100.00;100411.03;5186713;28;20026;-73
2022/06/27 04:26:53;;;;;;;6.53;3.65;;;;;;;21.89;100.00;100411.47;5189708;28;20037;-74
2022/06/27 04:29:23;;;;;;;8.63;4.07;;;;;;;21.84;100.00;100420.81;5193854;28;20025;-74
2022/06/27 04:31:54;;;;;;;5.55;3.90;;;;;;;21.81;100.00;100423.72;5192182;28;20065;-72
2022/06/27 04:34:24;;;;;;;7.40;3.70;;;;;;;21.85;100.00;100415.38;5189308;28;20057;-73
2022/06/27 04:36:55;;;;;;;8.13;3.92;;;;;;;21.86;100.00;100410.88;5190799;28;20038;-74
2022/06/27 04:39:25;;;;;;;10.85;3.85;;;;;;;21.80;100.00;100406.06;5189594;28;20026;-74
2022/06/27 04:41:56;;;;;;;5.97;3.83;;;;;;;21.83;100.00;100403.16;5189455;28;20550;-74
2022/06/27 04:44:27;;;;;;;7.35;3.80;;;;;;;21.70;100.00;100406.00;5192619;28;20036;-73
2022/06/27 04:46:57;;;;;;;5.47;3.35;;;;;;;21.79;100.00;100391.09;5192341;28;20064;-74
2022/06/27 04:49:28;;;;;;;6.63;3.90;;;;;;;21.76;100.00;100386.03;5185512;28;20026;-74
2022/06/27 04:51:59;;;;;;;8.82;3.40;;;;;;;21.90;100.00;100388.38;5182766;28;20036;-74
2022/06/27 04:54:30;;;;;;;5.47;3.17;;;;;;;21.94;100.00;100389.78;5189988;28;20069;-74
2022/06/27 04:57:00;;;;;;;6.10;3.53;;;;;;;21.93;100.00;100385.44;5187446;28;20096;-74
2022/06/27 04:59:31;;;;;;;6.22;3.50;;;;;;;21.75;100.00;100379.03;5190831;28;20513;-73
2022/06/27 05:02:01;;;;;;;4.13;3.30;;;;;;;21.95;100.00;100364.84;5190738;28;20055;-72
2022/06/27 05:04:32;;;;;;;7.25;3.05;;;;;;;22.16;99.14;100361.19;5192069;28;20096;-74
2022/06/27 05:07:02;;;;;;;4.65;3.20;;;;;;;21.96;100.00;100372.72;5192479;28;20084;-74
2022/06/27 05:09:33;;;;;;;7.53;2.90;;;;;;;21.88;100.00;100369.84;5190079;28;20719;-74
2022/06/27 05:12:03;;;;;;;6.38;3.30;;;;;;;22.14;99.62;100381.78;5190831;28;20045;-74
2022/06/27 05:14:34;;;;;;;5.68;2.83;;;;;;;21.88;100.00;100375.19;5189587;28;20105;-74
2022/06/27 05:17:04;;;;;;;4.38;3.13;;;;;;;21.67;100.00;100386.78;5188468;28;20110;-74
2022/06/27 05:19:35;;;;;;;4.53;3.03;;;;;;;21.71;100.00;100372.28;5185805;28;20034;-74
2022/06/27 05:22:07;;;;;;;5.30;2.70;;;;;;;21.81;100.00;100366.03;5192279;28;20428;-74
2022/06/27 05:24:37;;;;;;;5.18;2.80;;;;;;;21.72;100.00;100355.34;5190131;28;20087;-74
2022/06/27 05:27:09;;;;;;;4.93;3.10;;;;;;;21.85;100.00;100359.47;5190435;28;20093;-74
2022/06/27 05:29:39;;;;;;;4.85;3.00;;;;;;;21.89;100.00;100358.22;5193566;28;20025;-75
2022/06/27 05:32:10;;;;;;;4.80;3.00;;;;;;;21.52;100.00;100348.13;5189312;28;20036;-74
2022/06/27 05:34:41;;;;;;;3.85;3.05;;;;;;;21.70;100.00;100370.56;5193757;28;20424;-75
2022/06/27 05:37:11;;;;;;;4.00;2.60;;;;;;;21.98;100.00;100364.59;5189652;28;20026;-71
2022/06/27 05:39:44;;;;;;;8.10;2.85;;;;;;;21.87;100.00;100367.31;5193045;28;20045;-74
2022/06/27 05:42:14;;;;;;;4.70;3.00;;;;;;;21.43;100.00;100367.53;5184641;28;20037;-73
2022/06/27 05:44:44;;;;;;;4.25;3.10;;;;;;;21.55;100.00;100377.16;5191964;28;20030;-73
2022/06/27 05:47:16;;;;;;;4.00;3.00;;;;;;;21.45;100.00;100377.09;5189397;28;20353;-74
2022/06/27 05:49:48;;;;;;;8.25;3.45;;;;;;;21.49;100.00;100380.31;5184566;28;20037;-74
2022/06/27 05:52:19;;;;;;;4.60;3.30;;;;;;;21.49;100.00;100377.66;5188661;28;20025;-73
2022/06/27 05:54:49;;;;;;;4.03;3.13;;;;;;;21.58;100.00;100379.56;5189986;28;20545;-74
2022/06/27 05:57:20;;;;;;;5.47;3.38;;;;;;;21.32;100.00;100380.88;5191856;28;20057;-74
2022/06/27 05:59:52;;;;;;;6.38;3.80;;;;;;;21.49;100.00;100382.97;5190717;28;20026;-73
2022/06/27 06:02:23;;;;;;;5.10;3.60;;;;;;;21.40;100.00;100383.75;5191615;28;20032;-73
2022/06/27 06:04:54;;;;;;;6.68;4.00;;;;;;;21.36;100.00;100385.81;5191127;28;20113;-73
2022/06/27 06:07:25;;;;;;;7.15;3.55;;;;;;;21.42;100.00;100387.13;5191618;28;20028;-73
2022/06/27 06:09:55;;;;;;;5.20;3.40;;;;;;;21.59;100.00;100379.41;5190673;28;20033;-73
2022/06/27 06:12:26;;;;;;;4.88;3.55;;;;;;;21.74;100.00;100386.16;5191936;28;20017;-73
2022/06/27 06:15:04;;;;;;;4.40;3.22;;;;;;;21.92;100.00;100381.09;5191501;28;20034;-73
2022/06/27 06:17:36;;;;;;;4.82;3.15;;;;;;;21.87;100.00;100383.28;5190008;28;20495;-73
2022/06/27 06:20:07;;;;;;;4.45;3.60;;;;;;;21.85;100.00;100374.59;5183365;28;20033;-73
2022/06/27 06:22:38;;;;;;;4.65;3.47;;;;;;;21.59;100.00;100378.59;5188550;28;20026;-73
2022/06/27 06:25:08;;;;;;;6.30;3.45;;;;;;;21.78;100.00;100378.75;5207244;28;20029;-72
2022/06/27 06:27:40;;;;;;;4.97;3.20;;;;;;;21.82;100.00;100382.84;5204310;28;20024;-71
2022/06/27 06:30:11;;;;;;;9.63;3.85;;;;;;;21.88;100.00;100392.97;5188456;28;20661;-71
2022/06/27 06:32:42;;;;;;;4.25;3.58;;;;;;;22.12;100.00;100393.53;5190737;28;20017;-70
2022/06/27 06:35:13;;;;;;;4.95;3.30;;;;;;;22.13;100.00;100398.75;5187211;28;20115;-73
2022/06/27 06:37:44;;;;;;;4.55;3.45;;;;;;;21.98;100.00;100407.19;5182607;28;20518;-73
2022/06/27 06:40:17;;;;;;;5.43;3.25;;;;;;;21.99;100.00;100406.22;5218815;23;20531;-73
2022/06/27 06:42:48;;;;;;;4.38;3.30;;;;;;;22.08;100.00;100429.41;5197869;28;20497;-73
2022/06/27 06:45:19;;;;;;;7.60;4.05;;;;;;;22.16;100.00;100427.78;5200139;28;20029;-72
2022/06/27 06:47:51;;;;;;;5.78;3.83;;;;;;;22.01;100.00;100423.75;5198704;28;20429;-72
2022/06/27 06:50:21;;;;;;;5.05;3.15;;;;;;;22.48;100.00;100412.56;5199959;28;20475;-73
2022/06/27 06:52:52;;;;;;;5.45;3.10;;;;;;;22.91;99.32;100410.47;5197699;28;20035;-74
2022/06/27 06:55:23;;;;;;;6.72;3.53;;;;;;;23.30;96.44;100418.44;5190693;28;20037;-74
2022/06/27 06:57:54;;;;;;;4.90;3.20;;;;;;;23.50;95.16;100417.47;5190411;28;20470;-73
2022/06/27 07:00:24;;;;;;;4.18;3.50;;;;;;;23.31;96.06;100412.13;5200027;28;20033;-73
2022/06/27 07:02:56;;;;;;;7.22;3.88;;;;;;;23.43;95.30;100413.69;5200258;28;20029;-74
2022/06/27 07:05:27;;;;;;;5.65;3.80;;;;;;;23.50;94.20;100433.47;5200590;28;20108;-73
2022/06/27 07:07:58;;;;;;;7.72;3.75;;;;;;;23.33;95.34;100441.34;5199124;28;20041;-73
2022/06/27 07:10:29;;;;;;;6.72;3.72;;;;;;;23.55;96.33;100433.88;5198754;28;20022;-74
2022/06/27 07:12:59;;;;;;;8.05;3.42;;;;;;;23.80;94.91;100430.66;5199270;28;20025;-73
2022/06/27 07:15:33;;;;;;;4.50;3.38;;;;;;;23.71;93.49;100418.16;5189801;28;20559;-73
2022/06/27 07:18:04;;;;;;;7.88;3.90;;;;;;;23.81;93.18;100418.16;5197667;28;20033;-73
2022/06/27 07:20:35;;;;;;;7.50;3.65;;;;;;;23.57;95.51;100404.41;5198508;28;20037;-73
2022/06/27 07:23:06;;;;;;;6.05;3.60;;;;;;;23.87;93.55;100413.13;5194171;28;20029;-73
2022/06/27 07:25:37;;;;;;;9.95;3.90;;;;;;;23.79;92.00;100414.78;5199572;28;20076;-74
2022/06/27 07:28:08;;;;;;;6.53;3.97;;;;;;;23.42;96.34;100409.31;5199348;28;20041;-73
2022/06/27 07:30:41;;;;;;;7.55;4.40;;;;;;;22.95;98.63;100388.72;5198883;28;20030;-73
2022/06/27 07:33:11;;;;;;;4.63;3.83;;;;;;;23.33;97.56;100379.97;5192161;28;20013;-73
2022/06/27 07:35:43;;;;;;;6.13;3.92;;;;;;;23.71;94.80;100378.13;5199843;28;20407;-73
2022/06/27 07:38:13;;;;;;;5.85;3.67;;;;;;;23.72;94.19;100374.47;5197244;28;20101;-73
2022/06/27 07:40:44;;;;;;;6.53;4.13;;;;;;;23.79;94.91;100362.25;5198688;28;20160;-73
2022/06/27 07:43:15;;;;;;;8.65;3.95;;;;;;;23.77;94.81;100369.56;5199326;28;20560;-72
2022/06/27 07:45:47;;;;;;;6.80;4.32;;;;;;;23.96;93.16;100368.69;5199580;28;20092;-73
2022/06/27 07:48:20;;;;;;;5.25;3.78;;;;;;;24.77;91.04;100378.53;5198860;28;20509;-73
2022/06/27 07:50:50;;;;;;;5.30;4.00;;;;;;;24.83;87.61;100390.47;5199245;28;20132;-74
2022/06/27 07:53:20;;;;;;;4.93;3.65;;;;;;;;;;5199714;28;20096;-73
2022/06/27 07:55:57;;;;;;;4.60;3.87;;;;;;;24.74;89.88;100415.41;5202567;28;20367;-73
2022/06/27 07:58:33;;;;;;;8.15;3.65;;;;;;;25.01;89.08;100415.44;5203274;28;20090;-73
2022/06/27 08:01:12;;;;;;;5.88;3.95;;;;;;;24.73;88.95;100407.56;5211402;28;20045;-74
2022/06/27 08:03:44;;;;;;;6.18;4.10;;;;;;;24.95;89.88;100402.66;5204276;28;20037;-73
2022/06/27 08:06:18;;;;;;;5.63;3.78;;;;;;;24.62;91.19;100392.56;5199796;28;20482;-73
2022/06/27 08:08:53;;;;;;;7.40;4.68;;;;;;;24.97;88.35;100384.63;5203306;28;20474;-74
2022/06/27 08:11:29;;;;;;;5.78;4.25;;;;;;;25.03;87.45;100392.91;5203484;28;20036;-73
2022/06/27 08:14:03;;;;;;;8.65;4.40;;;;;;;24.46;89.63;100386.97;5204009;28;20026;-74
2022/06/27 08:16:35;;;;;;;8.15;4.30;;;;;;;24.67;90.60;100384.94;5202849;28;20087;-72
2022/06/27 08:19:10;;;;;;;7.10;4.32;;;;;;;24.27;93.51;100391.53;5203651;28;20071;-73
2022/06/27 08:21:41;;;;;;;7.10;4.47;;;;;;;24.18;91.47;100395.91;5203004;28;20160;-73
2022/06/27 08:24:16;;;;;;;6.45;4.50;;;;;;;24.20;92.31;100404.63;5203223;28;20067;-73
2022/06/27 08:26:49;;;;;;;6.72;4.25;;;;;;;24.69;92.71;100415.03;5202823;28;20029;-73
2022/06/27 08:29:20;;;;;;;7.18;3.80;;;;;;;26.31;85.89;100404.78;5202990;28;20099;-73
2022/06/27 08:31:52;;;;;;;5.18;3.88;;;;;;;26.97;79.71;100395.91;5203243;28;20091;-74
2022/06/27 08:34:23;;;;;;;5.25;4.03;;;;;;;26.08;85.41;100408.13;5202868;28;20032;-74
2022/06/27 08:36:54;;;;;;;6.72;3.20;;;;;;;27.80;79.27;100406.50;5202745;28;20560;-74
2022/06/27 08:39:25;;;;;;;5.03;3.38;;;;;;;29.77;72.88;100398.06;5202879;28;20026;-74
2022/06/27 08:41:56;;;;;;;6.32;2.97;;;;;;;31.21;68.59;100400.88;5197710;28;20453;-74
2022/06/27 08:44:28;;;;;;;6.28;3.15;;;;;;;31.72;66.61;100401.66;5203094;28;20426;-74
2022/06/27 08:46:58;;;;;;;7.75;3.13;;;;;;;32.03;66.69;100405.69;5202538;28;20040;-74
2022/06/27 08:49:31;;;;;;;9.57;3.53;;;;;;;30.02;69.55;100402.19;5198342;28;20021;-74
2022/06/27 08:52:02;;;;;;;6.57;2.88;;;;;;;31.60;65.57;100401.31;5202682;28;20033;-74
2022/06/27 08:54:33;;;;;;;8.60;3.47;;;;;;;32.53;62.51;100401.91;5202814;28;20029;-74
2022/06/27 08:57:04;;;;;;;6.32;3.00;;;;;;;32.90;62.52;100404.22;5202466;28;20033;-73
2022/06/27 08:59:34;;;;;;;5.80;2.92;;;;;;;32.74;61.74;100413.50;5202064;28;20029;-73
2022/06/27 09:02:06;;;;;;;4.17;2.77;;;;;;;33.10;62.85;100417.66;5202619;28;20498;-74
2022/06/27 09:04:59;;;;;;;4.97;2.58;;;;;;;32.54;62.63;100419.84;5203110;28;20751;-73
2022/06/27 09:07:53;;;;;;;5.65;2.50;;;;;;;32.57;61.87;100430.25;5199929;28;20527;-73
2022/06/27 09:10:40;;;;;;;6.20;2.70;;;;;;;32.21;62.89;100432.28;5199789;28;20033;-74
2022/06/27 09:13:12;;;;;;;4.18;3.13;;;;;;;32.08;63.05;100424.03;5202264;28;20100;-74
2022/06/27 09:15:53;;;;;;;4.60;2.70;;;;;;;31.25;65.39;100429.22;5203124;28;20021;-74
2022/06/27 09:18:33;;;;;;;3.17;2.28;;;;;;;32.43;61.37;100417.66;5198559;28;20098;-73
2022/06/27 09:21:06;;;;;;;6.25;2.50;;;;;;;31.31;62.97;100420.34;5202271;28;20064;-74
2022/06/27 09:24:01;;;;;;;5.00;2.90;;;;;;;30.81;64.32;100421.31;5201944;28;20071;-74
2022/06/27 09:26:38;;;;;;;4.00;2.47;;;;;;;30.51;65.20;100433.09;5200439;28;20514;-73
2022/06/27 09:29:14;;;;;;;8.02;2.55;;;;;;;29.99;65.95;100438.47;5201914;28;20037;-73
2022/06/27 09:31:45;;;;;;;5.95;2.70;;;;;;;29.50;67.24;100447.94;5198548;28;20048;-73
2022/06/27 09:34:16;;;;;;;4.30;2.60;;;;;;;30.12;66.13;100432.50;5201006;28;20117;-73
2022/06/27 09:36:54;;;;;;;3.78;2.40;;;;;;;30.39;65.70;100426.50;5202005;28;20104;-73
2022/06/27 09:39:29;;;;;;;5.90;2.70;;;;;;;28.69;70.91;100445.75;5201914;28;20104;-73
2022/06/27 09:42:10;;;;;;;3.40;2.63;;;;;;;29.32;71.20;100436.56;5201774;28;20112;-74
2022/06/27 09:44:42;;;;;;;9.18;3.00;;;;;;;28.80;71.61;100439.97;5201919;28;20029;-74
2022/06/27 09:47:17;;;;;;;4.10;2.67;;;;;;;28.89;71.26;100438.97;5199829;28;20029;-73
2022/06/27 09:49:50;;;;;;;11.03;2.87;;;;;;;29.77;69.52;100433.09;5198198;28;20269;-73
2022/06/27 09:52:23;;;;;;;3.80;2.50;;;;;;;29.90;69.19;100428.75;5201917;28;20087;-73
2022/06/27 09:54:55;;;;;;;4.28;2.35;;;;;;;29.53;68.69;100439.50;5209051;28;20029;-73
2022/06/27 09:57:26;;;;;;;3.15;2.30;;;;;;;30.12;69.08;100430.63;5201018;28;20021;-74
2022/06/27 09:59:56;;;;;;;8.48;2.40;;;;;;;29.36;71.61;100439.72;5201070;28;20060;-73
2022/06/27 10:02:28;;;;;;;5.05;2.50;;;;;;;29.60;67.79;100439.63;5201442;28;20122;-73
2022/06/27 10:04:59;;;;;;;3.47;2.20;;;;;;;29.28;68.39;100429.88;5195883;28;20037;-73
2022/06/27 10:07:30;;;;;;;2.97;2.25;;;;;;;30.08;65.42;100429.31;5200614;28;20104;-72
2022/06/27 10:10:00;;;;;;;4.50;2.00;;;;;;;30.56;64.15;100422.59;5199348;28;20033;-73
2022/06/27 10:12:34;;;;;;;2.88;1.88;;;;;;;31.03;63.61;100419.31;5200894;28;20022;-73
2022/06/27 10:15:11;;;;;;;3.33;1.90;;;;;;;30.92;64.46;100418.97;5201654;28;20032;-73
2022/06/27 10:17:49;;;;;;;5.03;1.83;;;;;;;31.16;62.45;100427.63;5199986;28;20101;-73
2022/06/27 10:20:26;;;;;;;3.28;2.00;;;;;;;30.73;64.30;100424.94;5198819;28;20029;-73
2022/06/27 10:23:08;;;;;;;3.63;2.03;;;;;;;30.06;67.56;100427.84;5198242;28;20029;-73
2022/06/27 10:25:44;;;;;;;4.90;1.75;;;;;;;29.70;66.48;100432.13;5199144;28;20128;-73
2022/06/27 10:28:16;;;;;;;5.68;1.98;;;;;;;29.93;65.90;100430.28;5199051;28;20104;-73
2022/06/27 10:30:49;;;;;;;3.85;1.80;;;;;;;30.02;66.14;100431.88;5199035;28;20463;-73
2022/06/27 10:33:22;;;;;;;2.20;1.80;;;;;;;29.83;64.93;100429.66;5198481;28;20087;-73
2022/06/27 10:38:38;;;;;;;4.50;2.63;;;;;;;29.07;67.80;100439.56;5199229;28;20356;-73
2022/06/27 10:41:11;;;;;;;4.65;1.90;;;;;;;29.20;68.46;100447.94;5199063;28;20029;-73
2022/06/27 10:43:41;;;;;;;2.47;1.70;;;;;;;28.75;68.83;100442.34;5198788;28;20030;-72
2022/06/27 10:46:11;;;;;;;2.50;1.80;;;;;;;29.48;66.45;100432.97;5200321;28;20036;-73
2022/06/27 10:48:54;;;;;;;2.73;1.83;;;;;;;29.95;66.73;100429.06;5199004;28;20037;-73
2022/06/27 10:51:26;;;;;;;3.45;1.98;;;;;;;30.02;65.14;100438.09;5200335;28;20025;-74
2022/06/27 10:54:05;;;;;;;2.75;1.80;;;;;;;30.24;65.76;100437.25;5199819;28;20043;-73
2022/06/27 10:56:41;;;;;;;3.70;1.80;;;;;;;30.62;65.92;100430.00;5199931;28;20037;-72
2022/06/27 10:59:14;;;;;;;2.40;1.75;;;;;;;30.77;65.27;100425.44;5200200;28;20018;-73
2022/06/27 11:01:51;;;;;;;3.17;1.75;;;;;;;30.42;64.65;100439.63;5200782;28;20041;-74
2022/06/27 11:04:28;;;;;;;2.80;1.70;;;;;;;30.65;64.17;100422.38;5199263;28;20486;-73
2022/06/27 11:07:04;;;;;;;2.28;1.52;;;;;;;30.64;63.08;100423.38;5200123;28;20099;-73
2022/06/27 11:09:35;;;;;;;;;;;;;;;30.30;63.59;100424.91;5199929;28;20033;-73
2022/06/27 11:12:07;;;;;;;4.10;1.80;;;;;;;29.44;65.26;100423.53;5200547;28;20351;-72
2022/06/27 11:14:47;;;;;;;5.15;1.85;;;;;;;29.04;65.55;100421.09;5200525;28;20232;-72
2022/06/27 11:17:29;;;;;;;2.67;1.63;;;;;;;29.37;65.59;100418.00;5198460;28;20033;-73
2022/06/27 11:20:26;;;;;;;4.35;1.90;;;;;;;29.03;64.96;100411.31;5199366;28;20058;-73
2022/06/27 11:22:57;;;;;;;;;;;;;;;28.87;66.64;100414.06;5200559;28;20025;-73
2022/06/27 11:25:30;;;;;;;3.67;1.80;;;;;;;29.05;66.76;100414.69;5200244;28;19917;-73
2022/06/27 11:33:42;;;;;;;4.65;1.73;;;;;;;29.24;67.62;100420.44;5204772;28;20500;-73
2022/06/27 11:36:13;;;;;;;3.58;1.88;;;;;;;29.20;67.33;100413.75;5203994;28;20410;-72
2022/06/27 11:38:46;;;;;;;2.83;1.80;;;;;;;29.44;66.37;100418.97;5199722;28;20422;-72
2022/06/27 11:41:28;;;;;;;3.45;1.88;;;;;;;29.40;66.44;100411.44;5204303;28;20037;-73
2022/06/27 11:44:04;;;;;;;2.58;1.73;;;;;;;28.73;67.01;100422.00;5204475;28;20483;-73
2022/06/27 11:46:35;;;;;;;2.30;1.80;;;;;;;28.65;66.35;100420.19;5203698;28;20068;-73
2022/06/27 11:49:10;;;;;;;2.47;1.88;;;;;;;28.49;67.35;100417.53;5204170;28;20502;-72
2022/06/27 11:51:47;;;;;;;3.67;1.70;;;;;;;28.49;70.66;100409.47;5202220;28;20390;-73
2022/06/27 11:54:19;;;;;;;3.95;1.77;;;;;;;28.35;70.23;100404.81;5200023;28;20064;-73
2022/06/27 11:56:53;;;;;;;3.13;1.70;;;;;;;28.11;71.74;100409.38;5203331;28;20469;-73